createdAt,value
2022-10-30T00:01:24.103Z,4.72
2022-10-30T00:04:25.702Z,5.60
2022-10-30T00:07:27.246Z,5.97
2022-10-30T00:10:28.797Z,4.85
2022-10-30T00:13:30.335Z,5.03
2022-10-30T00:16:40.620Z,5.35
2022-10-30T00:19:42.642Z,5.00
2022-10-30T00:22:48.091Z,5.15
2022-10-30T00:25:49.648Z,5.63
2022-10-30T00:28:55.604Z,5.43
2022-10-30T00:31:57.225Z,5.20
2022-10-30T00:34:59.801Z,5.65
2022-10-30T00:38:01.840Z,5.85
2022-10-30T00:41:03.944Z,6.03
2022-10-30T00:44:50.918Z,5.50
2022-10-30T00:47:57.708Z,4.57
2022-10-30T00:51:01.636Z,5.55
2022-10-30T00:54:05.450Z,5.40
2022-10-30T00:57:08.670Z,5.10
2022-10-30T01:00:11.862Z,6.28
2022-10-30T01:03:14.276Z,5.20
2022-10-30T01:06:17.133Z,5.68
2022-10-30T01:09:22.543Z,5.25
2022-10-30T01:12:24.101Z,5.82
2022-10-30T01:15:36.816Z,5.65
2022-10-30T01:18:46.346Z,8.23
2022-10-30T01:22:16.774Z,6.03
2022-10-30T01:25:27.609Z,5.47
2022-10-30T01:28:44.054Z,6.15
2022-10-30T01:32:00.872Z,5.40
2022-10-30T01:35:27.996Z,5.35
2022-10-30T01:38:35.027Z,5.13
2022-10-30T01:41:36.593Z,5.53
2022-10-30T01:44:38.934Z,6.05
2022-10-30T01:47:57.677Z,5.90
2022-10-30T01:51:04.355Z,6.00
2022-10-30T01:54:11.622Z,5.35
2022-10-30T01:57:36.551Z,5.80
2022-10-30T02:00:41.028Z,5.95
2022-10-30T02:03:42.996Z,5.57
2022-10-30T02:06:45.589Z,5.13
2022-10-30T02:09:47.367Z,5.90
2022-10-30T02:12:49.316Z,5.75
2022-10-30T02:15:51.053Z,5.68
2022-10-30T02:18:52.632Z,5.97
2022-10-30T02:21:54.444Z,5.40
2022-10-30T02:24:56.075Z,5.68
2022-10-30T02:27:57.747Z,6.15
2022-10-30T02:30:59.376Z,5.57
2022-10-30T02:34:00.920Z,5.45
2022-10-30T02:37:02.456Z,5.53
2022-10-30T02:40:04.644Z,5.50
2022-10-30T02:43:06.182Z,5.85
2022-10-30T02:46:07.825Z,5.65
2022-10-30T02:49:09.384Z,6.03
2022-10-30T02:52:10.948Z,6.30
2022-10-30T02:55:12.706Z,5.85
2022-10-30T02:58:14.392Z,6.30
2022-10-30T03:01:18.726Z,5.88
2022-10-30T03:04:20.467Z,5.72
2022-10-30T03:07:21.991Z,5.88
2022-10-30T03:10:23.674Z,6.38
2022-10-30T03:13:25.197Z,6.18
2022-10-30T03:16:30.856Z,7.30
2022-10-30T03:19:32.404Z,6.32
2022-10-30T03:22:33.985Z,6.65
2022-10-30T03:25:35.549Z,6.18
2022-10-30T03:28:37.227Z,6.57
2022-10-30T03:31:38.841Z,6.47
2022-10-30T03:34:40.413Z,6.35
2022-10-30T03:37:41.994Z,6.22
2022-10-30T03:40:43.546Z,6.40
2022-10-30T03:43:45.523Z,7.70
2022-10-30T03:46:47.067Z,6.03
2022-10-30T03:49:48.633Z,6.93
2022-10-30T03:52:50.185Z,6.75
2022-10-30T03:55:52.834Z,6.28
2022-10-30T03:58:54.497Z,6.25
2022-10-30T04:01:56.299Z,6.80
2022-10-30T04:04:58.080Z,6.47
2022-10-30T04:08:07.278Z,7.32
2022-10-30T04:11:11.253Z,6.55
2022-10-30T04:14:12.851Z,6.30
2022-10-30T04:17:14.422Z,6.07
2022-10-30T04:20:16.174Z,5.95
2022-10-30T04:23:20.617Z,7.03
2022-10-30T04:26:22.189Z,7.22
2022-10-30T04:29:23.747Z,7.28
2022-10-30T04:32:25.298Z,6.20
2022-10-30T04:35:29.446Z,7.00
2022-10-30T04:38:31.085Z,7.18
2022-10-30T04:41:32.595Z,6.03
2022-10-30T04:44:34.184Z,6.82
2022-10-30T04:47:35.753Z,6.43
2022-10-30T04:50:38.124Z,6.72
2022-10-30T04:53:39.685Z,7.13
2022-10-30T04:56:41.230Z,6.32
2022-10-30T04:59:42.771Z,7.07
2022-10-30T05:06:06.272Z,7.68
2022-10-30T05:09:07.978Z,6.40
2022-10-30T05:12:10.681Z,6.22
2022-10-30T05:15:13.144Z,6.32
2022-10-30T05:18:14.784Z,8.50
2022-10-30T05:21:16.386Z,7.07
2022-10-30T05:24:18.371Z,6.53
2022-10-30T05:27:20.010Z,6.80
2022-10-30T05:30:21.573Z,6.47
2022-10-30T05:33:23.676Z,6.20
2022-10-30T05:36:25.561Z,6.97
2022-10-30T05:39:27.839Z,7.32
2022-10-30T05:42:29.517Z,6.75
2022-10-30T05:45:31.569Z,6.80
2022-10-30T05:48:33.155Z,6.90
2022-10-30T05:51:38.042Z,6.72
2022-10-30T05:54:42.051Z,7.40
2022-10-30T05:57:43.588Z,6.50
2022-10-30T06:00:45.229Z,6.90
2022-10-30T06:03:46.755Z,7.18
2022-10-30T06:06:48.305Z,7.45
2022-10-30T06:09:49.840Z,7.35
2022-10-30T06:13:04.350Z,6.95
2022-10-30T06:16:06.181Z,7.43
2022-10-30T06:19:07.987Z,7.50
2022-10-30T06:22:09.662Z,7.90
2022-10-30T06:25:11.191Z,7.13
2022-10-30T06:28:13.605Z,7.20
2022-10-30T06:31:15.220Z,8.02
2022-10-30T06:34:16.823Z,7.95
2022-10-30T06:37:18.468Z,7.05
2022-10-30T06:40:20.571Z,6.50
2022-10-30T06:43:22.198Z,7.05
2022-10-30T06:46:27.015Z,7.20
2022-10-30T06:49:32.231Z,7.93
2022-10-30T06:52:34.107Z,7.22
2022-10-30T06:55:35.730Z,7.05
2022-10-30T06:58:39.145Z,7.90
2022-10-30T07:01:40.781Z,7.55
2022-10-30T07:04:42.639Z,7.72
2022-10-30T07:07:44.145Z,7.38
2022-10-30T07:10:45.739Z,6.90
2022-10-30T07:13:47.307Z,7.00
2022-10-30T07:16:48.837Z,7.00
2022-10-30T07:19:50.387Z,7.18
2022-10-30T07:22:51.990Z,7.28
2022-10-30T07:25:53.614Z,7.43
2022-10-30T07:28:55.157Z,7.05
2022-10-30T07:32:02.778Z,6.80
2022-10-30T07:35:05.873Z,6.53
2022-10-30T07:38:10.766Z,6.75
2022-10-30T07:41:12.338Z,6.95
2022-10-30T07:44:13.874Z,6.47
2022-10-30T07:47:15.438Z,6.90
2022-10-30T07:50:17.217Z,7.93
2022-10-30T07:53:18.746Z,7.15
2022-10-30T07:56:20.286Z,7.57
2022-10-30T07:59:21.830Z,7.32
2022-10-30T08:02:23.498Z,7.05
2022-10-30T08:05:28.882Z,7.57
2022-10-30T08:08:32.493Z,6.97
2022-10-30T08:11:34.056Z,7.13
2022-10-30T08:14:35.615Z,6.82
2022-10-30T08:17:47.826Z,7.20
2022-10-30T08:20:50.660Z,6.88
2022-10-30T08:23:52.429Z,6.75
2022-10-30T08:26:54.325Z,6.47
2022-10-30T08:29:55.840Z,6.53
2022-10-30T08:33:06.019Z,6.03
2022-10-30T08:36:08.313Z,6.63
2022-10-30T08:39:10.358Z,6.32
2022-10-30T08:42:12.285Z,7.22
2022-10-30T08:45:13.945Z,7.05
2022-10-30T08:48:16.476Z,6.18
2022-10-30T08:51:18.018Z,6.90
2022-10-30T08:54:24.401Z,6.72
2022-10-30T08:57:26.508Z,6.15
2022-10-30T09:00:29.032Z,6.32
2022-10-30T09:03:30.626Z,6.15
2022-10-30T09:06:32.178Z,6.38
2022-10-30T09:09:34.558Z,6.63
2022-10-30T09:12:36.219Z,6.10
2022-10-30T09:15:37.774Z,6.10
2022-10-30T09:18:39.305Z,6.65
2022-10-30T09:21:40.908Z,6.82
2022-10-30T09:24:42.479Z,6.47
2022-10-30T09:27:44.007Z,5.82
2022-10-30T09:30:45.773Z,6.32
2022-10-30T09:33:47.388Z,6.38
2022-10-30T09:36:49.501Z,6.45
2022-10-30T09:39:51.045Z,6.22
2022-10-30T09:42:53.658Z,5.72
2022-10-30T09:46:05.510Z,6.10
2022-10-30T09:49:33.441Z,6.03
2022-10-30T09:52:40.131Z,5.57
2022-10-30T09:56:02.790Z,6.20
2022-10-30T09:59:41.977Z,5.63
2022-10-30T10:03:12.452Z,6.60
2022-10-30T10:09:21.996Z,6.10
2022-10-30T10:12:29.798Z,6.32
2022-10-30T10:16:07.622Z,6.07
2022-10-30T10:19:11.927Z,5.32
2022-10-30T10:22:22.611Z,5.40
2022-10-30T10:25:25.462Z,5.88
2022-10-30T10:28:52.279Z,6.10
2022-10-30T10:32:19.661Z,6.13
2022-10-30T10:35:31.080Z,6.05
2022-10-30T10:39:02.038Z,6.10
2022-10-30T10:42:44.369Z,5.85
2022-10-30T10:45:55.255Z,5.78
2022-10-30T10:49:14.849Z,5.55
2022-10-30T10:52:22.818Z,6.37
2022-10-30T10:55:28.977Z,5.35
2022-10-30T10:58:39.249Z,5.43
2022-10-30T11:01:46.294Z,5.20
2022-10-30T11:04:52.246Z,5.05
2022-10-30T11:07:58.558Z,6.43
2022-10-30T11:11:06.934Z,8.60
2022-10-30T11:14:18.025Z,5.15
2022-10-30T11:17:38.583Z,5.63
2022-10-30T11:21:08.553Z,5.35
2022-10-30T11:24:33.433Z,5.30
2022-10-30T11:27:35.514Z,5.10
2022-10-30T11:30:37.082Z,5.20
2022-10-30T11:33:38.623Z,5.30
2022-10-30T11:36:40.266Z,5.90
2022-10-30T11:39:41.787Z,4.82
2022-10-30T11:43:00.094Z,5.10
2022-10-30T11:46:01.983Z,5.47
2022-10-30T11:49:03.807Z,5.28
2022-10-30T11:52:06.983Z,7.38
2022-10-30T11:55:16.145Z,5.63
2022-10-30T11:58:37.465Z,5.95
2022-10-30T12:01:39.225Z,6.18
2022-10-30T12:04:40.970Z,5.43
2022-10-30T12:07:42.559Z,4.65
2022-10-30T12:10:53.197Z,6.43
2022-10-30T12:13:55.605Z,5.95
2022-10-30T12:16:57.831Z,4.70
2022-10-30T12:20:00.000Z,5.82
2022-10-30T12:23:15.401Z,5.70
2022-10-30T12:26:17.121Z,5.30
2022-10-30T12:29:22.508Z,5.47
2022-10-30T12:32:38.546Z,5.32
2022-10-30T12:35:48.802Z,5.38
2022-10-30T12:39:13.904Z,6.03
2022-10-30T12:42:17.522Z,5.95
2022-10-30T12:45:24.792Z,5.18
2022-10-30T12:48:50.280Z,5.20
2022-10-30T12:52:03.595Z,5.20
2022-10-30T12:55:26.692Z,5.30
2022-10-30T12:58:39.762Z,5.68
2022-10-30T13:01:49.354Z,5.60
2022-10-30T13:04:57.745Z,5.43
2022-10-30T13:08:14.161Z,5.30
2022-10-30T13:11:57.742Z,5.22
2022-10-30T13:15:18.233Z,5.78
2022-10-30T13:18:24.743Z,5.75
2022-10-30T13:21:40.322Z,5.13
2022-10-30T13:24:50.961Z,5.70
2022-10-30T13:27:56.398Z,4.93
2022-10-30T13:31:34.181Z,6.00
2022-10-30T13:34:43.916Z,5.72
2022-10-30T13:37:58.881Z,5.68
2022-10-30T13:41:07.312Z,6.13
2022-10-30T13:44:38.374Z,5.63
2022-10-30T13:48:03.623Z,6.05
2022-10-30T13:51:32.714Z,11.50
2022-10-30T13:54:40.733Z,5.50
2022-10-30T13:58:04.049Z,5.28
2022-10-30T14:01:20.454Z,5.38
2022-10-30T14:04:38.586Z,6.20
2022-10-30T14:08:06.608Z,6.05
2022-10-30T14:11:14.754Z,5.03
2022-10-30T14:14:22.828Z,5.82
2022-10-30T14:17:24.474Z,4.97
2022-10-30T14:20:27.654Z,6.05
2022-10-30T14:23:37.489Z,5.05
2022-10-30T14:26:48.529Z,5.43
2022-10-30T14:29:54.118Z,5.53
2022-10-30T14:32:56.157Z,5.85
2022-10-30T14:36:16.709Z,5.57
2022-10-30T14:42:19.659Z,9.48
2022-10-30T14:45:39.040Z,8.88
2022-10-30T14:49:09.131Z,6.70
2022-10-30T14:52:20.634Z,8.82
2022-10-30T14:55:34.966Z,18.13
2022-10-30T14:58:40.112Z,17.27
2022-10-30T15:02:13.019Z,37.75
2022-10-30T15:05:54.219Z,11.77
2022-10-30T15:09:01.455Z,11.40
2022-10-30T15:12:37.049Z,11.18
2022-10-30T15:15:39.139Z,7.18
2022-10-30T15:18:40.725Z,7.30
2022-10-30T15:21:49.747Z,7.55
2022-10-30T15:24:51.950Z,9.77
2022-10-30T15:27:57.578Z,7.70
2022-10-30T15:31:26.236Z,6.82
2022-10-30T15:34:33.110Z,6.57
2022-10-30T15:37:34.646Z,6.10
2022-10-30T15:40:39.449Z,6.57
2022-10-30T15:43:43.080Z,6.07
2022-10-30T15:46:46.757Z,5.57
2022-10-30T15:49:59.795Z,6.97
2022-10-30T15:53:04.253Z,5.78
2022-10-30T15:56:11.726Z,8.43
2022-10-30T15:59:24.973Z,7.53
2022-10-30T16:02:27.263Z,6.40
2022-10-30T16:05:30.159Z,7.20
2022-10-30T16:08:33.161Z,6.20
2022-10-30T16:11:41.630Z,6.32
2022-10-30T16:14:43.174Z,6.13
2022-10-30T16:17:44.814Z,6.93
2022-10-30T16:21:02.181Z,6.85
2022-10-30T16:24:05.151Z,6.32
2022-10-30T16:27:15.089Z,6.88
2022-10-30T16:30:17.208Z,12.45
2022-10-30T16:33:25.773Z,12.18
2022-10-30T16:36:27.576Z,7.85
2022-10-30T16:39:31.189Z,6.47
2022-10-30T16:42:35.607Z,7.07
2022-10-30T16:45:46.970Z,6.97
2022-10-30T16:48:59.388Z,6.65
2022-10-30T16:52:14.576Z,6.80
2022-10-30T16:55:21.941Z,6.50
2022-10-30T16:58:31.455Z,6.15
2022-10-30T17:01:33.423Z,6.05
2022-10-30T17:04:35.750Z,6.78
2022-10-30T17:07:38.480Z,6.50
2022-10-30T17:11:04.334Z,7.55
2022-10-30T17:14:20.228Z,7.03
2022-10-30T17:17:23.954Z,8.15
2022-10-30T17:20:30.884Z,13.10
2022-10-30T17:23:34.083Z,10.02
2022-10-30T17:26:40.966Z,9.77
2022-10-30T17:29:42.484Z,11.00
2022-10-30T17:32:45.498Z,10.98
2022-10-30T17:35:47.090Z,11.30
2022-10-30T17:38:48.654Z,12.20
2022-10-30T17:41:50.615Z,11.77
2022-10-30T17:44:52.279Z,11.02
2022-10-30T17:47:53.805Z,10.45
2022-10-30T17:50:55.865Z,10.25
2022-10-30T17:53:57.438Z,10.68
2022-10-30T17:56:58.991Z,10.75
2022-10-30T18:00:00.545Z,9.48
2022-10-30T18:03:02.448Z,8.90
2022-10-30T18:06:05.473Z,10.02
2022-10-30T18:09:07.050Z,8.40
2022-10-30T18:12:14.967Z,8.25
2022-10-30T18:15:35.612Z,9.02
2022-10-30T18:18:38.064Z,8.05
2022-10-30T18:21:39.605Z,7.47
2022-10-30T18:24:42.713Z,8.00
2022-10-30T18:27:47.180Z,7.07
2022-10-30T18:30:53.461Z,7.18
2022-10-30T18:33:54.985Z,7.97
2022-10-30T18:36:56.506Z,7.60
2022-10-30T18:39:58.094Z,7.07
2022-10-30T18:43:00.224Z,7.78
2022-10-30T18:46:01.939Z,7.43
2022-10-30T18:49:03.578Z,7.93
2022-10-30T18:52:05.110Z,8.52
2022-10-30T18:55:23.329Z,7.95
2022-10-30T18:58:24.917Z,7.75
2022-10-30T19:01:26.783Z,7.45
2022-10-30T19:04:29.068Z,7.65
2022-10-30T19:07:30.602Z,7.32
2022-10-30T19:10:35.455Z,7.45
2022-10-30T19:13:37.019Z,6.90
2022-10-30T19:16:38.544Z,8.43
2022-10-30T19:19:40.139Z,8.13
2022-10-30T19:22:41.742Z,7.75
2022-10-30T19:25:44.421Z,8.05
2022-10-30T19:28:46.107Z,7.70
2022-10-30T19:31:47.668Z,7.72
2022-10-30T19:34:49.240Z,8.13
2022-10-30T19:37:50.757Z,8.10
2022-10-30T19:40:52.762Z,7.82
2022-10-30T19:43:54.381Z,10.10
2022-10-30T19:46:55.897Z,8.38
2022-10-30T19:49:57.430Z,8.65
2022-10-30T19:53:00.679Z,8.90
2022-10-30T19:56:02.546Z,9.07
2022-10-30T19:59:08.170Z,9.07
2022-10-30T20:02:10.942Z,8.70
2022-10-30T20:05:16.672Z,8.02
2022-10-30T20:08:20.973Z,9.50
2022-10-30T20:11:22.550Z,8.35
2022-10-30T20:14:24.106Z,8.73
2022-10-30T20:17:25.700Z,8.90
2022-10-30T20:20:33.465Z,9.45
2022-10-30T20:23:35.053Z,10.10
2022-10-30T20:26:38.275Z,8.93
2022-10-30T20:29:42.257Z,9.13
2022-10-30T20:32:44.351Z,9.43
2022-10-30T20:35:47.469Z,10.07
2022-10-30T20:38:49.014Z,9.73
2022-10-30T20:41:50.542Z,10.13
2022-10-30T20:44:52.595Z,10.75
2022-10-30T20:47:54.165Z,10.45
2022-10-30T20:50:57.579Z,9.75
2022-10-30T20:53:59.248Z,9.90
2022-10-30T20:57:00.872Z,10.85
2022-10-30T21:00:04.023Z,10.48
2022-10-30T21:03:10.251Z,9.77
2022-10-30T21:06:11.887Z,10.55
2022-10-30T21:09:13.438Z,11.32
2022-10-30T21:12:15.018Z,11.55
2022-10-30T21:15:16.821Z,12.18
2022-10-30T21:18:20.441Z,11.93
2022-10-30T21:21:25.610Z,11.20
2022-10-30T21:24:27.678Z,11.38
2022-10-30T21:27:29.287Z,11.05
2022-10-30T21:30:31.461Z,10.30
2022-10-30T21:33:34.508Z,11.40
2022-10-30T21:36:36.265Z,11.38
2022-10-30T21:39:37.882Z,12.45
2022-10-30T21:42:39.441Z,9.48
2022-10-30T21:45:41.006Z,12.68
2022-10-30T21:48:45.126Z,10.80
2022-10-30T21:51:54.836Z,11.63
2022-10-30T21:54:56.426Z,12.20
2022-10-30T21:57:58.411Z,12.77
2022-10-30T22:01:05.427Z,11.27
2022-10-30T22:04:09.330Z,11.63
2022-10-30T22:07:13.246Z,11.15
2022-10-30T22:10:14.816Z,12.95
2022-10-30T22:13:16.484Z,12.57
2022-10-30T22:16:18.214Z,13.57
2022-10-30T22:19:19.844Z,13.40
2022-10-30T22:22:23.612Z,13.40
2022-10-30T22:25:25.132Z,12.82
2022-10-30T22:28:28.635Z,13.70
2022-10-30T22:31:33.367Z,11.82
2022-10-30T22:34:35.136Z,13.18
2022-10-30T22:37:36.637Z,12.07
2022-10-30T22:40:38.457Z,11.52
2022-10-30T22:43:41.352Z,12.25
2022-10-30T22:46:42.992Z,11.23
2022-10-30T22:49:44.634Z,10.82
2022-10-30T22:52:46.262Z,13.00
2022-10-30T22:55:47.800Z,10.20
2022-10-30T22:58:50.485Z,11.60
2022-10-30T23:01:52.099Z,11.85
2022-10-30T23:04:53.739Z,12.77
2022-10-30T23:07:55.294Z,12.50
2022-10-30T23:10:57.158Z,10.85
2022-10-30T23:13:58.803Z,11.40
2022-10-30T23:17:00.742Z,10.85
2022-10-30T23:20:02.296Z,10.35
2022-10-30T23:23:04.605Z,12.02
2022-10-30T23:26:11.505Z,11.00
2022-10-30T23:29:15.431Z,13.32
2022-10-30T23:32:17.037Z,12.23
2022-10-30T23:35:18.618Z,12.18
2022-10-30T23:38:20.132Z,12.32
2022-10-30T23:41:23.282Z,12.43
2022-10-30T23:44:27.161Z,13.35
2022-10-30T23:47:28.762Z,12.65
2022-10-30T23:50:30.302Z,13.45
2022-10-30T23:53:31.865Z,12.40
2022-10-30T23:56:33.434Z,12.57
2022-10-30T23:59:34.981Z,13.10
